Minerva Grace — SVBN7 — position and weather

sailwx.info

Track history (hours):
 
Tides and Currents Weather Stations Pressure Air Temp Water Temp Dewpoint Dewpoint Depression Visibility Wind Speed Wind Dir Waves Ship Positions

Minerva Grace

Last reported at 2014-Sep-17 06:14 UTC. Time now 2014-Sep-17 07:33 UTC.
Position N 51°57' E 004°08'.

Length 183 m; draft 9.2 m.

Type: Tanker. MMSI: 241193000.

Date/timePositionNaut miles runAvg speedWind from/ knotsBaromVisibWave heightAir tempDewpointWater temp
2014-Sep-17 06:14N 51°57' E 004°08'0 0.0
2014-Sep-17 05:32N 51°57' E 004°08'0 0.0
2014-Sep-17 04:20N 51°57' E 004°08'0 0.0
2014-Sep-17 03:20N 51°57' E 004°08'0 0.0
2014-Sep-17 02:33N 51°57' E 004°08'7 6.8
2014-Sep-17 01:33N 51°60' E 003°58'1010.1
2014-Sep-17 00:33N 51°58' E 003°41'1110.8
2014-Sep-16 23:33N 51°55' E 003°24'1110.7
2014-Sep-16 22:33N 51°52' E 003°08'1111.0
2014-Sep-16 21:33N 51°49' E 002°51'1111.0
2014-Sep-16 20:33N 51°45' E 002°35'1212.1
2014-Sep-16 19:34N 51°36' E 002°22'1211.7
2014-Sep-16 18:33N 51°26' E 002°11'1212.3
2014-Sep-16 17:33N 51°14' E 002°04'1313.3
2014-Sep-16 16:33N 51°07' E 001°46'1313.4
2014-Sep-16 15:34N 50°58' E 001°31'1212.1
2014-Sep-16 14:33N 50°46' E 001°24'1211.8
2014-Sep-16 13:33N 50°37' E 001°13'1212.3
2014-Sep-16 12:33N 50°29' E 000°58'1312.9
2014-Sep-16 11:33N 50°26' E 000°39'1212.2
2014-Sep-16 10:33N 50°23' E 000°20'1711.6
2014-Sep-16 09:03N 50°18' W 000°06'811.1
2014-Sep-16 08:21N 50°16' W 000°18'1410.7
2014-Sep-16 07:05N 50°12' W 000°38'510.4
2014-Sep-16 06:33N 50°11' W 000°47'1210.6
2014-Sep-16 05:23N 50°07' W 001°05'4012.5
2014-Sep-16 02:09N 49°57' W 002°06'1214.1
2014-Sep-16 01:20N 49°54' W 002°23'  
2014-Sep-13 04:32N 38°07' W 009°46'1212.0
2014-Sep-13 03:33N 37°56' W 009°43'1212.1
2014-Sep-13 02:33N 37°44' W 009°40'1212.2
2014-Sep-13 01:33N 37°32' W 009°36'1511.6
2014-Sep-13 00:17N 37°18' W 009°31'2111.3
2014-Sep-12 22:27N 36°58' W 009°26'33 9.9
2014-Sep-12 19:05N 36°36' W 008°55'1811.0
2014-Sep-12 17:28N 36°31' W 008°34'15311.7
2014-Sep-12 04:25N 35°59' W 005°28'6 0.9
2014-Sep-11 21:23N 36°04' W 005°23'17211.4
2014-Sep-11 06:17N 36°29' W 001°51'1013.3
2014-Sep-11 05:32N 36°30' W 001°39'7612.2
2014-Sep-10 23:18N 36°43' W 000°06'1012.8
2014-Sep-10 22:32N 36°45' E 000°06'1212.1
2014-Sep-10 21:33N 36°48' E 000°21'1711.9
2014-Sep-10 20:09N 36°50' E 000°41'711.9
2014-Sep-10 19:32N 36°51' E 000°50'3812.6
2014-Sep-10 16:31N 36°58' E 001°37'2713.7
2014-Sep-10 14:33N 37°03' E 002°11'15512.7
2014-Sep-10 02:23N 37°30' E 005°22'1112.9
2014-Sep-10 01:33N 37°32' E 005°36'1313.2
2014-Sep-10 00:32N 37°34' E 005°52'1313.3
2014-Sep-09 23:33N 37°36' E 006°09'1313.1
2014-Sep-09 22:32N 37°38' E 006°25'2512.5
2014-Sep-09 20:33N 37°43' E 006°56'4412.6
2014-Sep-09 17:06N 37°50' E 007°50'713.1
2014-Sep-09 16:33N 37°52' E 007°59'1413.9
2014-Sep-09 15:33N 37°54' E 008°17'1413.7
2014-Sep-09 14:34N 37°56' E 008°34'1414.0
2014-Sep-09 13:34N 37°59' E 008°51'1413.6
2014-Sep-09 12:33N 37°58' E 009°08'1514.8
2014-Sep-09 11:32N 37°51' E 009°25'7412.4
2014-Sep-09 05:33N 37°31' E 010°56'10612.9
2014-Sep-08 21:22N 36°48' E 012°57'1312.8
2014-Sep-08 20:24N 36°43' E 013°11'1113.3
2014-Sep-08 19:33N 36°39' E 013°24'1312.7
2014-Sep-08 18:33N 36°33' E 013°38'1211.9
2014-Sep-08 17:33N 36°28' E 013°52'1212.0
2014-Sep-08 16:33N 36°25' E 014°06'1312.4
2014-Sep-08 15:33N 36°25' E 014°22'1212.4
2014-Sep-08 14:33N 36°25' E 014°37'1312.7
2014-Sep-08 13:33N 36°24' E 014°53'  
Track history (hours):
 
Tides and Currents Weather Stations Pressure Air Temp Water Temp Dewpoint Dewpoint Depression Visibility Wind Speed Wind Dir Waves Ship Positions

Minerva Grace

Last reported at 2014-Sep-17 06:14 UTC. Time now 2014-Sep-17 07:33 UTC.
Position N 51°57' E 004°08'.

Length 183 m; draft 9.2 m.

Type: Tanker. MMSI: 241193000.

Date/timePositionNaut miles runAvg speedWind from/ knotsBaromVisibWave heightAir tempDewpointWater temp
2014-Sep-17 06:14N 51°57' E 004°08'0 0.0
2014-Sep-17 05:32N 51°57' E 004°08'0 0.0
2014-Sep-17 04:20N 51°57' E 004°08'0 0.0
2014-Sep-17 03:20N 51°57' E 004°08'0 0.0
2014-Sep-17 02:33N 51°57' E 004°08'7 6.8
2014-Sep-17 01:33N 51°60' E 003°58'1010.1
2014-Sep-17 00:33N 51°58' E 003°41'1110.8
2014-Sep-16 23:33N 51°55' E 003°24'1110.7
2014-Sep-16 22:33N 51°52' E 003°08'1111.0
2014-Sep-16 21:33N 51°49' E 002°51'1111.0
2014-Sep-16 20:33N 51°45' E 002°35'1212.1
2014-Sep-16 19:34N 51°36' E 002°22'1211.7
2014-Sep-16 18:33N 51°26' E 002°11'1212.3
2014-Sep-16 17:33N 51°14' E 002°04'1313.3
2014-Sep-16 16:33N 51°07' E 001°46'1313.4
2014-Sep-16 15:34N 50°58' E 001°31'1212.1
2014-Sep-16 14:33N 50°46' E 001°24'1211.8
2014-Sep-16 13:33N 50°37' E 001°13'1212.3
2014-Sep-16 12:33N 50°29' E 000°58'1312.9
2014-Sep-16 11:33N 50°26' E 000°39'1212.2
2014-Sep-16 10:33N 50°23' E 000°20'1711.6
2014-Sep-16 09:03N 50°18' W 000°06'811.1
2014-Sep-16 08:21N 50°16' W 000°18'1410.7
2014-Sep-16 07:05N 50°12' W 000°38'510.4
2014-Sep-16 06:33N 50°11' W 000°47'1210.6
2014-Sep-16 05:23N 50°07' W 001°05'4012.5
2014-Sep-16 02:09N 49°57' W 002°06'1214.1
2014-Sep-16 01:20N 49°54' W 002°23'  
2014-Sep-13 04:32N 38°07' W 009°46'1212.0
2014-Sep-13 03:33N 37°56' W 009°43'1212.1
2014-Sep-13 02:33N 37°44' W 009°40'1212.2
2014-Sep-13 01:33N 37°32' W 009°36'1511.6
2014-Sep-13 00:17N 37°18' W 009°31'2111.3
2014-Sep-12 22:27N 36°58' W 009°26'33 9.9
2014-Sep-12 19:05N 36°36' W 008°55'1811.0
2014-Sep-12 17:28N 36°31' W 008°34'15311.7
2014-Sep-12 04:25N 35°59' W 005°28'6 0.9
2014-Sep-11 21:23N 36°04' W 005°23'17211.4
2014-Sep-11 06:17N 36°29' W 001°51'1013.3
2014-Sep-11 05:32N 36°30' W 001°39'7612.2
2014-Sep-10 23:18N 36°43' W 000°06'1012.8
2014-Sep-10 22:32N 36°45' E 000°06'1212.1
2014-Sep-10 21:33N 36°48' E 000°21'1711.9
2014-Sep-10 20:09N 36°50' E 000°41'711.9
2014-Sep-10 19:32N 36°51' E 000°50'3812.6
2014-Sep-10 16:31N 36°58' E 001°37'2713.7
2014-Sep-10 14:33N 37°03' E 002°11'15512.7
2014-Sep-10 02:23N 37°30' E 005°22'1112.9
2014-Sep-10 01:33N 37°32' E 005°36'1313.2
2014-Sep-10 00:32N 37°34' E 005°52'1313.3
2014-Sep-09 23:33N 37°36' E 006°09'1313.1
2014-Sep-09 22:32N 37°38' E 006°25'2512.5
2014-Sep-09 20:33N 37°43' E 006°56'4412.6
2014-Sep-09 17:06N 37°50' E 007°50'713.1
2014-Sep-09 16:33N 37°52' E 007°59'1413.9
2014-Sep-09 15:33N 37°54' E 008°17'1413.7
2014-Sep-09 14:34N 37°56' E 008°34'1414.0
2014-Sep-09 13:34N 37°59' E 008°51'1413.6
2014-Sep-09 12:33N 37°58' E 009°08'1514.8
2014-Sep-09 11:32N 37°51' E 009°25'7412.4
2014-Sep-09 05:33N 37°31' E 010°56'10612.9
2014-Sep-08 21:22N 36°48' E 012°57'1312.8
2014-Sep-08 20:24N 36°43' E 013°11'1113.3
2014-Sep-08 19:33N 36°39' E 013°24'1312.7
2014-Sep-08 18:33N 36°33' E 013°38'1211.9
2014-Sep-08 17:33N 36°28' E 013°52'1212.0
2014-Sep-08 16:33N 36°25' E 014°06'1312.4
2014-Sep-08 15:33N 36°25' E 014°22'1212.4
2014-Sep-08 14:33N 36°25' E 014°37'1312.7
2014-Sep-08 13:33N 36°24' E 014°53'  

Dump ship's entire track history